sensor_id;sensor_type;location;lat;lon;timestamp;temperature;humidity
19516;DHT22;9901;47.448;7.692;2023-02-28T00:00:10;0.30;99.90
19516;DHT22;9901;47.448;7.692;2023-02-28T00:02:40;0.30;99.90
19516;DHT22;9901;47.448;7.692;2023-02-28T00:05:21;0.30;99.90
19516;DHT22;9901;47.448;7.692;2023-02-28T00:07:47;0.20;99.90
19516;DHT22;9901;47.448;7.692;2023-02-28T00:10:17;0.30;99.90
19516;DHT22;9901;47.448;7.692;2023-02-28T00:12:49;0.30;99.90
19516;DHT22;9901;47.448;7.692;2023-02-28T00:15:16;0.30;99.90
19516;DHT22;9901;47.448;7.692;2023-02-28T00:17:41;0.20;99.90
19516;DHT22;9901;47.448;7.692;2023-02-28T00:20:09;0.30;99.90
19516;DHT22;9901;47.448;7.692;2023-02-28T00:22:36;0.30;99.90
19516;DHT22;9901;47.448;7.692;2023-02-28T00:25:03;0.30;99.90
19516;DHT22;9901;47.448;7.692;2023-02-28T00:27:30;0.30;99.90
19516;DHT22;9901;47.448;7.692;2023-02-28T00:30:01;0.30;99.90
19516;DHT22;9901;47.448;7.692;2023-02-28T00:32:33;0.20;99.90
19516;DHT22;9901;47.448;7.692;2023-02-28T00:35:00;0.20;99.90
19516;DHT22;9901;47.448;7.692;2023-02-28T00:37:25;0.30;99.90
19516;DHT22;9901;47.448;7.692;2023-02-28T00:39:52;0.20;99.90
19516;DHT22;9901;47.448;7.692;2023-02-28T00:42:17;0.30;99.90
19516;DHT22;9901;47.448;7.692;2023-02-28T00:44:43;0.40;99.90
19516;DHT22;9901;47.448;7.692;2023-02-28T00:47:09;0.30;99.90
19516;DHT22;9901;47.448;7.692;2023-02-28T00:49:35;0.30;99.90
19516;DHT22;9901;47.448;7.692;2023-02-28T00:52:05;0.20;99.90
19516;DHT22;9901;47.448;7.692;2023-02-28T00:54:33;0.30;99.90
19516;DHT22;9901;47.448;7.692;2023-02-28T00:57:07;0.40;99.90
19516;DHT22;9901;47.448;7.692;2023-02-28T00:59:42;0.30;99.90
19516;DHT22;9901;47.448;7.692;2023-02-28T01:02:07;0.20;99.90
19516;DHT22;9901;47.448;7.692;2023-02-28T01:04:34;0.20;99.90
19516;DHT22;9901;47.448;7.692;2023-02-28T01:07:00;0.20;99.90
19516;DHT22;9901;47.448;7.692;2023-02-28T01:09:25;0.20;99.90
19516;DHT22;9901;47.448;7.692;2023-02-28T01:11:52;0.20;99.90
19516;DHT22;9901;47.448;7.692;2023-02-28T01:14:21;0.20;99.90
19516;DHT22;9901;47.448;7.692;2023-02-28T01:16:48;0.10;99.90
19516;DHT22;9901;47.448;7.692;2023-02-28T01:19:14;0.10;99.90
19516;DHT22;9901;47.448;7.692;2023-02-28T01:21:52;0.20;99.90
19516;DHT22;9901;47.448;7.692;2023-02-28T01:24:34;0.20;99.90
19516;DHT22;9901;47.448;7.692;2023-02-28T01:27:07;0.20;99.90
19516;DHT22;9901;47.448;7.692;2023-02-28T01:29:42;0.20;99.90
19516;DHT22;9901;47.448;7.692;2023-02-28T01:32:07;0.20;99.90
19516;DHT22;9901;47.448;7.692;2023-02-28T01:34:41;0.20;99.90
19516;DHT22;9901;47.448;7.692;2023-02-28T01:37:12;0.20;99.90
19516;DHT22;9901;47.448;7.692;2023-02-28T01:39:46;0.20;99.90
19516;DHT22;9901;47.448;7.692;2023-02-28T01:42:13;0.20;99.90
19516;DHT22;9901;47.448;7.692;2023-02-28T01:45:14;0.20;99.90
19516;DHT22;9901;47.448;7.692;2023-02-28T01:47:48;0.20;99.90
19516;DHT22;9901;47.448;7.692;2023-02-28T01:50:37;0.20;99.90
19516;DHT22;9901;47.448;7.692;2023-02-28T01:53:18;0.20;99.90
19516;DHT22;9901;47.448;7.692;2023-02-28T01:56:12;0.20;99.90
19516;DHT22;9901;47.448;7.692;2023-02-28T01:58:49;0.20;99.90
19516;DHT22;9901;47.448;7.692;2023-02-28T02:01:29;0.20;99.90
19516;DHT22;9901;47.448;7.692;2023-02-28T02:03:58;0.20;99.90
19516;DHT22;9901;47.448;7.692;2023-02-28T02:06:37;0.20;99.90
19516;DHT22;9901;47.448;7.692;2023-02-28T02:09:03;0.20;99.90
19516;DHT22;9901;47.448;7.692;2023-02-28T02:11:30;0.20;99.90
19516;DHT22;9901;47.448;7.692;2023-02-28T02:17:06;0.10;99.90
19516;DHT22;9901;47.448;7.692;2023-02-28T02:25:58;0.10;99.90
19516;DHT22;9901;47.448;7.692;2023-02-28T02:28:47;0.10;99.90
19516;DHT22;9901;47.448;7.692;2023-02-28T02:31:45;0.10;99.90
19516;DHT22;9901;47.448;7.692;2023-02-28T02:37:19;0.10;99.90
19516;DHT22;9901;47.448;7.692;2023-02-28T02:39:53;0.10;99.90
19516;DHT22;9901;47.448;7.692;2023-02-28T02:42:41;0.10;99.90
19516;DHT22;9901;47.448;7.692;2023-02-28T02:48:30;0.10;99.90
19516;DHT22;9901;47.448;7.692;2023-02-28T02:50:59;0.10;99.90
19516;DHT22;9901;47.448;7.692;2023-02-28T02:53:49;0.10;99.90
19516;DHT22;9901;47.448;7.692;2023-02-28T02:56:18;0.10;99.90
19516;DHT22;9901;47.448;7.692;2023-02-28T02:58:47;0.10;99.90
19516;DHT22;9901;47.448;7.692;2023-02-28T03:01:19;0.10;99.90
19516;DHT22;9901;47.448;7.692;2023-02-28T03:04:21;0.10;99.90
19516;DHT22;9901;47.448;7.692;2023-02-28T03:06:59;0.10;99.90
19516;DHT22;9901;47.448;7.692;2023-02-28T03:09:27;0.10;99.90
19516;DHT22;9901;47.448;7.692;2023-02-28T03:11:56;0.10;99.90
19516;DHT22;9901;47.448;7.692;2023-02-28T03:17:18;0.10;99.90
19516;DHT22;9901;47.448;7.692;2023-02-28T03:22:48;0.10;99.90
19516;DHT22;9901;47.448;7.692;2023-02-28T03:31:21;0.00;99.90
19516;DHT22;9901;47.448;7.692;2023-02-28T03:36:42;0.10;99.90
19516;DHT22;9901;47.448;7.692;2023-02-28T03:42:15;0.10;99.90
19516;DHT22;9901;47.448;7.692;2023-02-28T03:45:14;0.10;99.90
19516;DHT22;9901;47.448;7.692;2023-02-28T03:50:30;0.10;99.90
19516;DHT22;9901;47.448;7.692;2023-02-28T03:56:38;0.10;99.90
19516;DHT22;9901;47.448;7.692;2023-02-28T03:58:43;0.10;99.90
19516;DHT22;9901;47.448;7.692;2023-02-28T04:01:17;0.00;99.90
19516;DHT22;9901;47.448;7.692;2023-02-28T04:03:44;0.10;99.90
19516;DHT22;9901;47.448;7.692;2023-02-28T04:06:16;0.10;99.90
19516;DHT22;9901;47.448;7.692;2023-02-28T04:08:45;0.10;99.90
19516;DHT22;9901;47.448;7.692;2023-02-28T04:11:36;0.10;99.90
19516;DHT22;9901;47.448;7.692;2023-02-28T04:14:06;0.10;99.90
19516;DHT22;9901;47.448;7.692;2023-02-28T04:16:35;0.10;99.90
19516;DHT22;9901;47.448;7.692;2023-02-28T04:19:02;0.10;99.90
19516;DHT22;9901;47.448;7.692;2023-02-28T04:21:52;0.10;99.90
19516;DHT22;9901;47.448;7.692;2023-02-28T04:24:23;0.00;99.90
19516;DHT22;9901;47.448;7.692;2023-02-28T04:26:51;0.00;99.90
19516;DHT22;9901;47.448;7.692;2023-02-28T04:29:34;0.10;99.90
19516;DHT22;9901;47.448;7.692;2023-02-28T04:32:09;0.10;99.90
19516;DHT22;9901;47.448;7.692;2023-02-28T04:34:38;0.10;99.90
19516;DHT22;9901;47.448;7.692;2023-02-28T04:37:03;0.10;99.90
19516;DHT22;9901;47.448;7.692;2023-02-28T04:39:36;0.10;99.90
19516;DHT22;9901;47.448;7.692;2023-02-28T04:42:02;0.10;99.90
19516;DHT22;9901;47.448;7.692;2023-02-28T04:44:27;0.10;99.90
19516;DHT22;9901;47.448;7.692;2023-02-28T04:46:53;0.00;99.90
19516;DHT22;9901;47.448;7.692;2023-02-28T04:49:19;0.00;99.90
19516;DHT22;9901;47.448;7.692;2023-02-28T04:51:45;0.00;99.90
19516;DHT22;9901;47.448;7.692;2023-02-28T04:54:11;0.00;99.90
19516;DHT22;9901;47.448;7.692;2023-02-28T04:56:38;0.00;99.90
19516;DHT22;9901;47.448;7.692;2023-02-28T04:59:04;0.00;99.90
19516;DHT22;9901;47.448;7.692;2023-02-28T05:01:31;0.00;99.90
19516;DHT22;9901;47.448;7.692;2023-02-28T05:04:00;0.10;99.90
19516;DHT22;9901;47.448;7.692;2023-02-28T05:06:33;0.00;99.90
19516;DHT22;9901;47.448;7.692;2023-02-28T05:08:59;0.00;99.90
19516;DHT22;9901;47.448;7.692;2023-02-28T05:11:28;0.10;99.90
19516;DHT22;9901;47.448;7.692;2023-02-28T05:13:55;0.00;99.90
19516;DHT22;9901;47.448;7.692;2023-02-28T05:16:21;0.00;99.90
19516;DHT22;9901;47.448;7.692;2023-02-28T05:18:47;0.10;99.90
19516;DHT22;9901;47.448;7.692;2023-02-28T05:21:27;0.00;99.90
19516;DHT22;9901;47.448;7.692;2023-02-28T05:24:21;0.00;99.90
19516;DHT22;9901;47.448;7.692;2023-02-28T05:26:52;0.00;99.90
19516;DHT22;9901;47.448;7.692;2023-02-28T05:29:22;0.00;99.90
19516;DHT22;9901;47.448;7.692;2023-02-28T05:31:48;0.00;99.90
19516;DHT22;9901;47.448;7.692;2023-02-28T05:34:14;0.10;99.90
19516;DHT22;9901;47.448;7.692;2023-02-28T05:36:41;0.00;99.90
19516;DHT22;9901;47.448;7.692;2023-02-28T05:39:07;0.10;99.90
19516;DHT22;9901;47.448;7.692;2023-02-28T05:41:38;0.00;99.90
19516;DHT22;9901;47.448;7.692;2023-02-28T05:44:04;0.00;99.90
19516;DHT22;9901;47.448;7.692;2023-02-28T05:46:29;0.00;99.90
19516;DHT22;9901;47.448;7.692;2023-02-28T05:49:17;0.00;99.90
19516;DHT22;9901;47.448;7.692;2023-02-28T05:51:42;0.10;99.90
19516;DHT22;9901;47.448;7.692;2023-02-28T05:54:08;0.00;99.90
19516;DHT22;9901;47.448;7.692;2023-02-28T05:56:41;0.00;99.90
19516;DHT22;9901;47.448;7.692;2023-02-28T05:59:10;0.00;99.90
19516;DHT22;9901;47.448;7.692;2023-02-28T06:01:41;0.00;99.90
19516;DHT22;9901;47.448;7.692;2023-02-28T06:04:11;0.10;99.90
19516;DHT22;9901;47.448;7.692;2023-02-28T06:06:39;0.10;99.90
19516;DHT22;9901;47.448;7.692;2023-02-28T06:09:05;0.00;99.90
19516;DHT22;9901;47.448;7.692;2023-02-28T06:11:30;0.10;99.90
19516;DHT22;9901;47.448;7.692;2023-02-28T06:13:59;0.10;99.90
19516;DHT22;9901;47.448;7.692;2023-02-28T06:16:36;0.00;99.90
19516;DHT22;9901;47.448;7.692;2023-02-28T06:19:03;0.10;99.90
19516;DHT22;9901;47.448;7.692;2023-02-28T06:21:40;0.10;99.90
19516;DHT22;9901;47.448;7.692;2023-02-28T06:24:09;0.10;99.90
19516;DHT22;9901;47.448;7.692;2023-02-28T06:26:50;0.10;99.90
19516;DHT22;9901;47.448;7.692;2023-02-28T06:29:16;0.00;99.90
19516;DHT22;9901;47.448;7.692;2023-02-28T06:31:44;0.00;99.90
19516;DHT22;9901;47.448;7.692;2023-02-28T06:34:16;0.00;99.90
19516;DHT22;9901;47.448;7.692;2023-02-28T06:36:50;0.00;99.90
19516;DHT22;9901;47.448;7.692;2023-02-28T06:39:16;0.00;99.90
19516;DHT22;9901;47.448;7.692;2023-02-28T06:41:42;0.00;99.90
19516;DHT22;9901;47.448;7.692;2023-02-28T06:44:15;0.00;99.90
19516;DHT22;9901;47.448;7.692;2023-02-28T06:46:43;0.00;99.90
19516;DHT22;9901;47.448;7.692;2023-02-28T06:49:09;0.00;99.90
19516;DHT22;9901;47.448;7.692;2023-02-28T06:51:38;0.00;99.90
19516;DHT22;9901;47.448;7.692;2023-02-28T06:54:04;0.00;99.90
19516;DHT22;9901;47.448;7.692;2023-02-28T06:56:30;0.00;99.90
19516;DHT22;9901;47.448;7.692;2023-02-28T06:59:01;0.00;99.90
19516;DHT22;9901;47.448;7.692;2023-02-28T07:01:31;0.00;99.90
19516;DHT22;9901;47.448;7.692;2023-02-28T07:04:02;0.10;99.90
19516;DHT22;9901;47.448;7.692;2023-02-28T07:06:28;0.00;99.90
19516;DHT22;9901;47.448;7.692;2023-02-28T07:08:54;0.10;99.90
19516;DHT22;9901;47.448;7.692;2023-02-28T07:11:21;0.10;99.90
19516;DHT22;9901;47.448;7.692;2023-02-28T07:13:49;0.10;99.90
19516;DHT22;9901;47.448;7.692;2023-02-28T07:16:34;0.10;99.90
19516;DHT22;9901;47.448;7.692;2023-02-28T07:19:00;0.10;99.90
19516;DHT22;9901;47.448;7.692;2023-02-28T07:21:26;0.10;99.90
19516;DHT22;9901;47.448;7.692;2023-02-28T07:24:13;0.20;99.90
19516;DHT22;9901;47.448;7.692;2023-02-28T07:26:41;0.20;99.90
19516;DHT22;9901;47.448;7.692;2023-02-28T07:29:06;0.10;99.90
19516;DHT22;9901;47.448;7.692;2023-02-28T07:31:32;0.10;99.90
19516;DHT22;9901;47.448;7.692;2023-02-28T07:33:58;0.10;99.90
19516;DHT22;9901;47.448;7.692;2023-02-28T07:36:23;0.10;99.90
19516;DHT22;9901;47.448;7.692;2023-02-28T07:38:51;0.10;99.90
19516;DHT22;9901;47.448;7.692;2023-02-28T07:41:20;0.10;99.90
19516;DHT22;9901;47.448;7.692;2023-02-28T07:44:12;0.20;99.90
19516;DHT22;9901;47.448;7.692;2023-02-28T07:46:41;0.20;99.90
19516;DHT22;9901;47.448;7.692;2023-02-28T07:49:07;0.20;99.90
19516;DHT22;9901;47.448;7.692;2023-02-28T07:51:32;0.20;99.90
19516;DHT22;9901;47.448;7.692;2023-02-28T07:53:58;0.20;99.90
19516;DHT22;9901;47.448;7.692;2023-02-28T07:56:24;0.20;99.90
19516;DHT22;9901;47.448;7.692;2023-02-28T07:58:49;0.30;99.90
19516;DHT22;9901;47.448;7.692;2023-02-28T08:01:15;0.30;99.90
19516;DHT22;9901;47.448;7.692;2023-02-28T08:04:14;0.30;99.90
19516;DHT22;9901;47.448;7.692;2023-02-28T08:06:40;0.30;99.90
19516;DHT22;9901;47.448;7.692;2023-02-28T08:09:05;0.30;99.90
19516;DHT22;9901;47.448;7.692;2023-02-28T08:11:37;0.30;99.90
19516;DHT22;9901;47.448;7.692;2023-02-28T08:14:03;0.30;99.90
19516;DHT22;9901;47.448;7.692;2023-02-28T08:16:28;0.50;99.90
19516;DHT22;9901;47.448;7.692;2023-02-28T08:18:57;0.40;99.90
19516;DHT22;9901;47.448;7.692;2023-02-28T08:21:30;0.30;99.90
19516;DHT22;9901;47.448;7.692;2023-02-28T08:24:07;0.30;99.90
19516;DHT22;9901;47.448;7.692;2023-02-28T08:26:36;0.40;99.90
19516;DHT22;9901;47.448;7.692;2023-02-28T08:29:01;0.40;99.90
19516;DHT22;9901;47.448;7.692;2023-02-28T08:31:38;0.40;99.90
19516;DHT22;9901;47.448;7.692;2023-02-28T08:34:15;0.40;99.90
19516;DHT22;9901;47.448;7.692;2023-02-28T08:36:48;0.50;99.90
19516;DHT22;9901;47.448;7.692;2023-02-28T08:39:15;0.40;99.90
19516;DHT22;9901;47.448;7.692;2023-02-28T08:41:43;0.40;99.90
19516;DHT22;9901;47.448;7.692;2023-02-28T08:44:33;0.50;99.90
19516;DHT22;9901;47.448;7.692;2023-02-28T08:47:04;0.60;99.90
19516;DHT22;9901;47.448;7.692;2023-02-28T08:49:30;0.70;99.90
19516;DHT22;9901;47.448;7.692;2023-02-28T08:51:55;0.70;99.90
19516;DHT22;9901;47.448;7.692;2023-02-28T08:54:24;0.70;99.90
19516;DHT22;9901;47.448;7.692;2023-02-28T08:56:52;0.70;99.90
19516;DHT22;9901;47.448;7.692;2023-02-28T08:59:18;0.70;99.90
19516;DHT22;9901;47.448;7.692;2023-02-28T09:01:50;0.70;99.90
19516;DHT22;9901;47.448;7.692;2023-02-28T09:04:16;0.90;99.90
19516;DHT22;9901;47.448;7.692;2023-02-28T09:06:42;0.70;99.90
19516;DHT22;9901;47.448;7.692;2023-02-28T09:09:18;0.80;99.90
19516;DHT22;9901;47.448;7.692;2023-02-28T09:12:02;0.80;99.90
19516;DHT22;9901;47.448;7.692;2023-02-28T09:14:27;0.80;99.90
19516;DHT22;9901;47.448;7.692;2023-02-28T09:16:53;0.90;99.90
19516;DHT22;9901;47.448;7.692;2023-02-28T09:19:26;1.00;99.90
19516;DHT22;9901;47.448;7.692;2023-02-28T09:21:51;1.00;99.90
19516;DHT22;9901;47.448;7.692;2023-02-28T09:24:17;0.90;99.90
19516;DHT22;9901;47.448;7.692;2023-02-28T09:26:45;0.90;99.90
19516;DHT22;9901;47.448;7.692;2023-02-28T09:29:10;1.00;99.90
19516;DHT22;9901;47.448;7.692;2023-02-28T09:31:49;1.00;99.90
19516;DHT22;9901;47.448;7.692;2023-02-28T09:34:15;1.00;99.90
19516;DHT22;9901;47.448;7.692;2023-02-28T09:36:42;1.10;99.90
19516;DHT22;9901;47.448;7.692;2023-02-28T09:39:08;1.20;99.90
19516;DHT22;9901;47.448;7.692;2023-02-28T09:41:40;1.30;99.90
19516;DHT22;9901;47.448;7.692;2023-02-28T09:47:07;1.30;99.90
19516;DHT22;9901;47.448;7.692;2023-02-28T09:49:46;1.30;99.90
19516;DHT22;9901;47.448;7.692;2023-02-28T09:52:29;1.40;99.90
19516;DHT22;9901;47.448;7.692;2023-02-28T10:04:21;1.60;99.90
19516;DHT22;9901;47.448;7.692;2023-02-28T10:06:55;1.60;99.90
19516;DHT22;9901;47.448;7.692;2023-02-28T10:09:30;1.70;99.90
19516;DHT22;9901;47.448;7.692;2023-02-28T10:12:09;1.70;99.90
19516;DHT22;9901;47.448;7.692;2023-02-28T10:14:38;1.80;99.90
19516;DHT22;9901;47.448;7.692;2023-02-28T10:17:28;1.70;99.90
19516;DHT22;9901;47.448;7.692;2023-02-28T10:20:02;1.80;99.90
19516;DHT22;9901;47.448;7.692;2023-02-28T10:25:34;1.90;99.90
19516;DHT22;9901;47.448;7.692;2023-02-28T10:28:09;2.00;99.90
19516;DHT22;9901;47.448;7.692;2023-02-28T10:30:59;2.00;99.90
19516;DHT22;9901;47.448;7.692;2023-02-28T10:33:33;2.10;99.90
19516;DHT22;9901;47.448;7.692;2023-02-28T10:36:04;2.00;99.90
19516;DHT22;9901;47.448;7.692;2023-02-28T10:38:37;2.10;99.90
19516;DHT22;9901;47.448;7.692;2023-02-28T10:41:11;2.20;99.90
19516;DHT22;9901;47.448;7.692;2023-02-28T10:43:41;2.10;99.90
19516;DHT22;9901;47.448;7.692;2023-02-28T10:49:41;2.10;99.90
19516;DHT22;9901;47.448;7.692;2023-02-28T10:51:37;2.00;99.90
19516;DHT22;9901;47.448;7.692;2023-02-28T10:54:36;2.10;99.90
19516;DHT22;9901;47.448;7.692;2023-02-28T10:57:12;2.10;99.90
19516;DHT22;9901;47.448;7.692;2023-02-28T10:59:40;2.10;99.90
19516;DHT22;9901;47.448;7.692;2023-02-28T11:02:34;2.10;99.90
19516;DHT22;9901;47.448;7.692;2023-02-28T11:05:01;2.20;99.90
19516;DHT22;9901;47.448;7.692;2023-02-28T11:07:27;2.20;99.90
19516;DHT22;9901;47.448;7.692;2023-02-28T11:09:55;2.30;99.90
19516;DHT22;9901;47.448;7.692;2023-02-28T11:14:57;2.40;99.90
19516;DHT22;9901;47.448;7.692;2023-02-28T11:17:29;2.40;99.90
19516;DHT22;9901;47.448;7.692;2023-02-28T11:19:58;2.40;99.90
19516;DHT22;9901;47.448;7.692;2023-02-28T11:22:38;2.40;99.90
19516;DHT22;9901;47.448;7.692;2023-02-28T11:25:16;2.40;99.90
19516;DHT22;9901;47.448;7.692;2023-02-28T11:27:52;2.30;99.90
19516;DHT22;9901;47.448;7.692;2023-02-28T11:30:38;2.40;99.90
19516;DHT22;9901;47.448;7.692;2023-02-28T11:33:29;2.40;99.90
19516;DHT22;9901;47.448;7.692;2023-02-28T11:36:08;2.40;99.90
19516;DHT22;9901;47.448;7.692;2023-02-28T11:38:38;2.40;99.90
19516;DHT22;9901;47.448;7.692;2023-02-28T11:44:40;2.40;99.90
19516;DHT22;9901;47.448;7.692;2023-02-28T11:53:05;2.50;99.90
19516;DHT22;9901;47.448;7.692;2023-02-28T11:55:43;2.60;99.90
19516;DHT22;9901;47.448;7.692;2023-02-28T12:01:25;2.70;99.90
19516;DHT22;9901;47.448;7.692;2023-02-28T12:10:27;2.70;99.90
19516;DHT22;9901;47.448;7.692;2023-02-28T12:15:32;2.60;99.90
19516;DHT22;9901;47.448;7.692;2023-02-28T12:18:30;2.70;99.90
19516;DHT22;9901;47.448;7.692;2023-02-28T12:26:53;2.70;99.90
19516;DHT22;9901;47.448;7.692;2023-02-28T12:29:32;2.70;99.90
19516;DHT22;9901;47.448;7.692;2023-02-28T12:34:39;2.50;99.90
19516;DHT22;9901;47.448;7.692;2023-02-28T12:37:13;2.60;99.90
19516;DHT22;9901;47.448;7.692;2023-02-28T12:39:48;2.50;99.90
19516;DHT22;9901;47.448;7.692;2023-02-28T12:42:29;2.50;99.90
19516;DHT22;9901;47.448;7.692;2023-02-28T12:45:02;2.60;99.90
19516;DHT22;9901;47.448;7.692;2023-02-28T12:47:32;2.60;99.90
19516;DHT22;9901;47.448;7.692;2023-02-28T12:50:24;2.60;99.90
19516;DHT22;9901;47.448;7.692;2023-02-28T12:56:20;2.70;99.90
19516;DHT22;9901;47.448;7.692;2023-02-28T12:59:20;2.70;99.90
19516;DHT22;9901;47.448;7.692;2023-02-28T13:02:13;2.80;99.90
19516;DHT22;9901;47.448;7.692;2023-02-28T13:05:04;2.80;99.90
19516;DHT22;9901;47.448;7.692;2023-02-28T13:08:01;2.60;99.90
19516;DHT22;9901;47.448;7.692;2023-02-28T13:10:47;2.70;99.90
19516;DHT22;9901;47.448;7.692;2023-02-28T13:13:25;2.80;99.90
19516;DHT22;9901;47.448;7.692;2023-02-28T13:16:10;2.80;99.90
19516;DHT22;9901;47.448;7.692;2023-02-28T13:18:49;2.80;99.90
19516;DHT22;9901;47.448;7.692;2023-02-28T13:21:27;2.70;99.90
19516;DHT22;9901;47.448;7.692;2023-02-28T13:24:39;2.70;99.90
19516;DHT22;9901;47.448;7.692;2023-02-28T13:29:38;2.50;99.90
19516;DHT22;9901;47.448;7.692;2023-02-28T13:42:48;2.40;99.90
19516;DHT22;9901;47.448;7.692;2023-02-28T13:45:29;2.40;99.90
19516;DHT22;9901;47.448;7.692;2023-02-28T13:48:19;2.30;99.90
19516;DHT22;9901;47.448;7.692;2023-02-28T13:50:45;2.30;99.90
19516;DHT22;9901;47.448;7.692;2023-02-28T14:07:00;2.20;99.90
19516;DHT22;9901;47.448;7.692;2023-02-28T14:12:18;2.10;99.90
19516;DHT22;9901;47.448;7.692;2023-02-28T14:14:54;2.20;99.90
19516;DHT22;9901;47.448;7.692;2023-02-28T14:17:34;2.20;99.90
19516;DHT22;9901;47.448;7.692;2023-02-28T14:20:13;2.30;99.90
19516;DHT22;9901;47.448;7.692;2023-02-28T14:28:21;2.20;99.90
19516;DHT22;9901;47.448;7.692;2023-02-28T14:31:24;2.20;99.90
19516;DHT22;9901;47.448;7.692;2023-02-28T14:34:49;2.10;99.90
19516;DHT22;9901;47.448;7.692;2023-02-28T14:37:24;2.10;99.90
19516;DHT22;9901;47.448;7.692;2023-02-28T14:39:50;2.10;99.90
19516;DHT22;9901;47.448;7.692;2023-02-28T14:42:34;2.20;99.90
19516;DHT22;9901;47.448;7.692;2023-02-28T14:45:03;2.20;99.90
19516;DHT22;9901;47.448;7.692;2023-02-28T14:47:36;2.40;99.90
19516;DHT22;9901;47.448;7.692;2023-02-28T14:50:04;2.60;99.90
19516;DHT22;9901;47.448;7.692;2023-02-28T14:52:34;2.50;99.90
19516;DHT22;9901;47.448;7.692;2023-02-28T14:55:03;2.40;99.90
19516;DHT22;9901;47.448;7.692;2023-02-28T14:57:34;2.30;99.90
19516;DHT22;9901;47.448;7.692;2023-02-28T15:00:20;2.30;99.90
19516;DHT22;9901;47.448;7.692;2023-02-28T15:02:46;2.40;99.90
19516;DHT22;9901;47.448;7.692;2023-02-28T15:07:38;2.50;99.90
19516;DHT22;9901;47.448;7.692;2023-02-28T15:10:20;2.50;99.90
19516;DHT22;9901;47.448;7.692;2023-02-28T15:13:00;2.50;99.90
19516;DHT22;9901;47.448;7.692;2023-02-28T15:21:15;2.50;99.90
19516;DHT22;9901;47.448;7.692;2023-02-28T15:23:54;2.50;99.90
19516;DHT22;9901;47.448;7.692;2023-02-28T15:26:32;2.50;99.90
19516;DHT22;9901;47.448;7.692;2023-02-28T15:29:27;2.30;99.90
19516;DHT22;9901;47.448;7.692;2023-02-28T15:32:07;2.20;99.90
19516;DHT22;9901;47.448;7.692;2023-02-28T15:37:25;2.30;99.90
19516;DHT22;9901;47.448;7.692;2023-02-28T15:39:58;2.20;99.90
19516;DHT22;9901;47.448;7.692;2023-02-28T15:42:35;2.20;99.90
19516;DHT22;9901;47.448;7.692;2023-02-28T15:45:01;2.10;99.90
19516;DHT22;9901;47.448;7.692;2023-02-28T15:47:29;2.10;99.90
19516;DHT22;9901;47.448;7.692;2023-02-28T15:50:03;2.10;99.90
19516;DHT22;9901;47.448;7.692;2023-02-28T15:52:39;2.00;99.90
19516;DHT22;9901;47.448;7.692;2023-02-28T15:55:29;2.00;99.90
19516;DHT22;9901;47.448;7.692;2023-02-28T16:01:18;1.70;99.90
19516;DHT22;9901;47.448;7.692;2023-02-28T16:03:48;1.80;99.90
19516;DHT22;9901;47.448;7.692;2023-02-28T16:08:47;1.70;99.90
19516;DHT22;9901;47.448;7.692;2023-02-28T16:11:16;1.70;99.90
19516;DHT22;9901;47.448;7.692;2023-02-28T16:13:45;1.80;99.90
19516;DHT22;9901;47.448;7.692;2023-02-28T16:16:26;1.80;99.90
19516;DHT22;9901;47.448;7.692;2023-02-28T16:18:55;1.80;99.90
19516;DHT22;9901;47.448;7.692;2023-02-28T16:21:21;1.70;99.90
19516;DHT22;9901;47.448;7.692;2023-02-28T16:23:48;1.70;99.90
19516;DHT22;9901;47.448;7.692;2023-02-28T16:26:24;1.70;99.90
19516;DHT22;9901;47.448;7.692;2023-02-28T16:28:54;1.70;99.90
19516;DHT22;9901;47.448;7.692;2023-02-28T16:31:20;1.80;99.90
19516;DHT22;9901;47.448;7.692;2023-02-28T16:33:46;1.80;99.90
19516;DHT22;9901;47.448;7.692;2023-02-28T16:36:21;1.60;99.90
19516;DHT22;9901;47.448;7.692;2023-02-28T16:38:47;1.60;99.90
19516;DHT22;9901;47.448;7.692;2023-02-28T16:41:34;1.60;99.90
19516;DHT22;9901;47.448;7.692;2023-02-28T16:44:01;1.60;99.90
19516;DHT22;9901;47.448;7.692;2023-02-28T16:50:01;1.60;99.90
19516;DHT22;9901;47.448;7.692;2023-02-28T16:56:37;1.60;99.90
19516;DHT22;9901;47.448;7.692;2023-02-28T16:59:11;1.60;99.90
19516;DHT22;9901;47.448;7.692;2023-02-28T17:01:42;1.60;99.90
19516;DHT22;9901;47.448;7.692;2023-02-28T17:04:10;1.60;99.90
19516;DHT22;9901;47.448;7.692;2023-02-28T17:06:36;1.60;99.90
19516;DHT22;9901;47.448;7.692;2023-02-28T17:09:01;1.70;99.90
19516;DHT22;9901;47.448;7.692;2023-02-28T17:11:27;1.70;99.90
19516;DHT22;9901;47.448;7.692;2023-02-28T17:13:56;1.70;99.90
19516;DHT22;9901;47.448;7.692;2023-02-28T17:16:32;1.70;99.90
19516;DHT22;9901;47.448;7.692;2023-02-28T17:19:01;1.80;99.90
19516;DHT22;9901;47.448;7.692;2023-02-28T17:21:28;1.70;99.90
19516;DHT22;9901;47.448;7.692;2023-02-28T17:23:53;1.70;99.90
19516;DHT22;9901;47.448;7.692;2023-02-28T17:26:20;1.60;99.90
19516;DHT22;9901;47.448;7.692;2023-02-28T17:28:49;1.70;99.90
19516;DHT22;9901;47.448;7.692;2023-02-28T17:31:19;1.60;99.90
19516;DHT22;9901;47.448;7.692;2023-02-28T17:33:45;1.60;99.90
19516;DHT22;9901;47.448;7.692;2023-02-28T17:36:31;1.70;99.90
19516;DHT22;9901;47.448;7.692;2023-02-28T17:38:58;1.60;99.90
19516;DHT22;9901;47.448;7.692;2023-02-28T17:41:25;1.60;99.90
19516;DHT22;9901;47.448;7.692;2023-02-28T17:43:52;1.50;99.90
19516;DHT22;9901;47.448;7.692;2023-02-28T17:46:20;1.50;99.90
19516;DHT22;9901;47.448;7.692;2023-02-28T17:48:55;1.60;99.90
19516;DHT22;9901;47.448;7.692;2023-02-28T17:51:24;1.70;99.90
19516;DHT22;9901;47.448;7.692;2023-02-28T17:53:50;1.50;99.90
19516;DHT22;9901;47.448;7.692;2023-02-28T17:56:21;1.60;99.90
19516;DHT22;9901;47.448;7.692;2023-02-28T17:58:48;1.60;99.90
19516;DHT22;9901;47.448;7.692;2023-02-28T18:01:21;1.60;99.90
19516;DHT22;9901;47.448;7.692;2023-02-28T18:03:48;1.60;99.90
19516;DHT22;9901;47.448;7.692;2023-02-28T18:06:18;1.50;99.90
19516;DHT22;9901;47.448;7.692;2023-02-28T18:08:44;1.50;99.90
19516;DHT22;9901;47.448;7.692;2023-02-28T18:11:10;1.50;99.90
19516;DHT22;9901;47.448;7.692;2023-02-28T18:13:53;1.50;99.90
19516;DHT22;9901;47.448;7.692;2023-02-28T18:16:20;1.50;99.90
19516;DHT22;9901;47.448;7.692;2023-02-28T18:18:49;1.50;99.90
19516;DHT22;9901;47.448;7.692;2023-02-28T18:21:16;1.50;99.90
19516;DHT22;9901;47.448;7.692;2023-02-28T18:23:43;1.40;99.90
19516;DHT22;9901;47.448;7.692;2023-02-28T18:26:17;1.50;99.90
19516;DHT22;9901;47.448;7.692;2023-02-28T18:28:47;1.50;99.90
19516;DHT22;9901;47.448;7.692;2023-02-28T18:31:15;1.50;99.90
19516;DHT22;9901;47.448;7.692;2023-02-28T18:33:42;1.50;99.90
19516;DHT22;9901;47.448;7.692;2023-02-28T18:36:08;1.50;99.90
19516;DHT22;9901;47.448;7.692;2023-02-28T18:38:38;1.50;99.90
19516;DHT22;9901;47.448;7.692;2023-02-28T18:41:06;1.40;99.90
19516;DHT22;9901;47.448;7.692;2023-02-28T18:43:34;1.40;99.90
19516;DHT22;9901;47.448;7.692;2023-02-28T18:46:10;1.30;99.90
19516;DHT22;9901;47.448;7.692;2023-02-28T18:48:36;1.40;99.90
19516;DHT22;9901;47.448;7.692;2023-02-28T18:51:28;1.30;99.90
19516;DHT22;9901;47.448;7.692;2023-02-28T18:53:54;1.30;99.90
19516;DHT22;9901;47.448;7.692;2023-02-28T18:56:21;1.30;99.90
19516;DHT22;9901;47.448;7.692;2023-02-28T18:58:48;1.40;99.90
19516;DHT22;9901;47.448;7.692;2023-02-28T19:01:23;1.30;99.90
19516;DHT22;9901;47.448;7.692;2023-02-28T19:03:51;1.30;99.90
19516;DHT22;9901;47.448;7.692;2023-02-28T19:06:17;1.30;99.90
19516;DHT22;9901;47.448;7.692;2023-02-28T19:08:43;1.20;99.90